createdAt,value
2022-12-31T00:01:57.492Z,101308.31
2022-12-31T00:05:19.298Z,101309.47
2022-12-31T00:08:22.719Z,101308.03
2022-12-31T00:11:28.022Z,101322.19
2022-12-31T00:14:39.095Z,101330.25
2022-12-31T00:17:55.638Z,101330.50
2022-12-31T00:21:20.425Z,101327.22
2022-12-31T00:24:36.742Z,101329.56
2022-12-31T00:27:59.543Z,101331.22
2022-12-31T00:31:29.309Z,101336.81
2022-12-31T00:34:32.388Z,101350.13
2022-12-31T00:37:39.007Z,101345.25
2022-12-31T00:40:47.187Z,101352.25
2022-12-31T00:43:58.072Z,101356.69
2022-12-31T00:47:24.329Z,101346.28
2022-12-31T00:50:47.363Z,101351.66
2022-12-31T00:54:12.351Z,101363.47
2022-12-31T00:57:32.431Z,101369.75
2022-12-31T01:00:52.328Z,101364.72
2022-12-31T01:04:20.346Z,101369.66
2022-12-31T01:07:33.496Z,101378.19
2022-12-31T01:11:13.846Z,101367.78
2022-12-31T01:14:20.840Z,101363.91
2022-12-31T01:17:40.283Z,101361.91
2022-12-31T01:21:00.383Z,101361.56
2022-12-31T01:24:22.216Z,101359.81
2022-12-31T01:27:33.497Z,101373.28
2022-12-31T01:30:39.900Z,101364.25
2022-12-31T01:33:55.165Z,101374.22
2022-12-31T01:36:58.155Z,101374.78
2022-12-31T01:40:01.260Z,101383.09
2022-12-31T01:43:26.205Z,101375.94
2022-12-31T01:46:59.300Z,101376.16
2022-12-31T01:50:16.166Z,101376.03
2022-12-31T01:53:19.540Z,101368.81
2022-12-31T01:56:26.257Z,101368.31
2022-12-31T01:59:33.459Z,101358.97
2022-12-31T02:02:36.625Z,101376.97
2022-12-31T02:06:07.124Z,101377.41
2022-12-31T02:09:20.273Z,101371.03
2022-12-31T02:12:40.961Z,101373.22
2022-12-31T02:16:07.140Z,101372.41
2022-12-31T02:19:39.189Z,101384.91
2022-12-31T02:22:54.592Z,101377.88
2022-12-31T02:26:44.234Z,101368.03
2022-12-31T02:30:15.153Z,101369.72
2022-12-31T02:33:47.678Z,101375.91
2022-12-31T02:37:13.031Z,101384.91
2022-12-31T02:40:32.095Z,101390.88
2022-12-31T02:43:53.984Z,101383.16
2022-12-31T02:47:23.746Z,101379.44
2022-12-31T02:50:55.706Z,101385.38
2022-12-31T02:54:19.477Z,101382.78
2022-12-31T02:57:25.965Z,101368.53
2022-12-31T03:01:09.291Z,101367.63
2022-12-31T03:04:32.768Z,101359.06
2022-12-31T03:07:41.504Z,101342.59
2022-12-31T03:10:57.073Z,101356.69
2022-12-31T03:14:17.747Z,101362.09
2022-12-31T03:17:38.588Z,101353.28
2022-12-31T03:21:15.984Z,101350.50
2022-12-31T03:24:43.187Z,101368.53
2022-12-31T03:27:47.362Z,101356.59
2022-12-31T03:31:06.058Z,101350.34
2022-12-31T03:34:18.522Z,101364.41
2022-12-31T03:37:33.944Z,101369.34
2022-12-31T03:41:01.935Z,101363.00
2022-12-31T03:44:24.410Z,101351.28
2022-12-31T03:47:46.861Z,101345.81
2022-12-31T03:51:21.858Z,101350.97
2022-12-31T03:54:46.716Z,101359.69
2022-12-31T03:58:09.688Z,101351.47
2022-12-31T04:01:30.826Z,101359.78
2022-12-31T04:04:52.739Z,101360.50
2022-12-31T04:08:03.133Z,101362.13
2022-12-31T04:11:25.881Z,101355.09
2022-12-31T04:14:59.790Z,101356.03
2022-12-31T04:18:21.830Z,101357.66
2022-12-31T04:21:37.951Z,101354.63
2022-12-31T04:24:59.775Z,101359.06
2022-12-31T04:28:28.782Z,101369.72
2022-12-31T04:31:52.679Z,101381.09
2022-12-31T04:35:13.683Z,101380.84
2022-12-31T04:38:36.947Z,101377.69
2022-12-31T04:41:58.051Z,101396.06
2022-12-31T04:45:10.638Z,101397.44
2022-12-31T04:48:33.639Z,101399.94
2022-12-31T04:52:04.897Z,101396.91
2022-12-31T04:55:28.660Z,101407.03
2022-12-31T04:58:50.859Z,101420.63
2022-12-31T05:02:10.787Z,101422.84
2022-12-31T05:05:33.660Z,101422.25
2022-12-31T05:08:51.779Z,101424.94
2022-12-31T05:12:11.628Z,101441.06
2022-12-31T05:15:31.780Z,101444.22
2022-12-31T05:18:39.306Z,101442.47
2022-12-31T05:21:42.847Z,101435.13
2022-12-31T05:24:58.635Z,101437.47
2022-12-31T05:28:19.779Z,101435.84
2022-12-31T05:31:35.654Z,101446.34
2022-12-31T05:34:52.147Z,101451.84
2022-12-31T05:38:21.649Z,101449.28
2022-12-31T05:41:50.188Z,101461.56
2022-12-31T05:44:59.109Z,101456.97
2022-12-31T05:48:21.551Z,101467.06
2022-12-31T05:51:58.602Z,101458.28
2022-12-31T05:55:19.709Z,101464.22
2022-12-31T05:58:36.665Z,101468.81
2022-12-31T06:01:54.104Z,101464.69
2022-12-31T06:05:26.131Z,101466.81
2022-12-31T06:08:52.599Z,101471.38
2022-12-31T06:12:04.290Z,101480.25
2022-12-31T06:15:49.435Z,101468.78
2022-12-31T06:19:50.174Z,101463.66
2022-12-31T06:22:57.173Z,101462.84
2022-12-31T06:26:05.374Z,101463.19
2022-12-31T06:29:12.807Z,101473.13
2022-12-31T06:32:30.834Z,101473.38
2022-12-31T06:35:52.442Z,101473.59
2022-12-31T06:38:59.438Z,101470.56
2022-12-31T06:42:11.268Z,101484.09
2022-12-31T06:45:15.556Z,101486.81
2022-12-31T06:48:44.068Z,101486.44
2022-12-31T06:52:08.641Z,101490.44
2022-12-31T06:55:28.538Z,101489.75
2022-12-31T06:58:40.295Z,101493.50
2022-12-31T07:06:28.064Z,101505.06
2022-12-31T07:10:53.045Z,101503.88
2022-12-31T07:14:55.774Z,101506.91
2022-12-31T07:18:29.909Z,101519.69
2022-12-31T07:21:41.502Z,101516.91
2022-12-31T07:24:52.082Z,101522.38
2022-12-31T07:28:33.456Z,101516.78
2022-12-31T07:32:42.754Z,101516.31
2022-12-31T07:36:27.799Z,101507.63
2022-12-31T07:40:20.479Z,101515.63
2022-12-31T07:43:50.026Z,101518.97
2022-12-31T07:50:44.223Z,101536.81
2022-12-31T07:54:15.514Z,101531.75
2022-12-31T07:57:44.185Z,101533.28
2022-12-31T08:01:32.319Z,101534.66
2022-12-31T08:05:00.705Z,101535.97
2022-12-31T08:09:16.177Z,101550.00
2022-12-31T08:12:40.831Z,101565.53
2022-12-31T08:20:05.501Z,101560.06
2022-12-31T08:24:12.882Z,101567.91
2022-12-31T08:28:17.349Z,101581.50
2022-12-31T08:31:58.310Z,101593.53
2022-12-31T08:35:39.320Z,101592.84
2022-12-31T08:38:57.702Z,101592.63
2022-12-31T08:43:07.587Z,101591.88
2022-12-31T08:46:47.327Z,101598.94
2022-12-31T08:49:57.589Z,101611.59
2022-12-31T08:53:47.509Z,101612.84
2022-12-31T08:57:33.933Z,101620.06
2022-12-31T09:01:05.212Z,101613.88
2022-12-31T09:04:22.832Z,101602.31
2022-12-31T09:08:22.272Z,101614.44
2022-12-31T09:12:42.931Z,101612.84
2022-12-31T09:20:48.777Z,101605.72
2022-12-31T09:23:56.341Z,101594.78
2022-12-31T09:27:27.765Z,101590.34
2022-12-31T09:31:06.241Z,101587.91
2022-12-31T09:34:46.833Z,101571.94
2022-12-31T09:38:25.185Z,101580.72
2022-12-31T09:42:17.107Z,101560.88
2022-12-31T09:45:52.334Z,101562.66
2022-12-31T09:49:40.848Z,101541.94
2022-12-31T09:53:10.657Z,101543.63
2022-12-31T09:56:34.005Z,101533.25
2022-12-31T10:00:12.340Z,101533.13
2022-12-31T10:03:27.928Z,101532.97
2022-12-31T10:07:00.663Z,101524.28
2022-12-31T10:10:31.081Z,101529.94
2022-12-31T10:14:03.154Z,101533.38
2022-12-31T10:17:28.309Z,101542.78
2022-12-31T10:20:48.181Z,101533.44
2022-12-31T10:24:23.400Z,101521.91
2022-12-31T10:27:55.115Z,101523.22
2022-12-31T10:31:05.010Z,101528.25
2022-12-31T10:34:32.060Z,101527.72
2022-12-31T10:38:02.376Z,101518.97
2022-12-31T10:41:24.765Z,101545.72
2022-12-31T10:45:24.039Z,101545.00
2022-12-31T10:49:02.595Z,101540.03
2022-12-31T10:52:20.231Z,101531.22
2022-12-31T10:55:52.119Z,101517.19
2022-12-31T11:00:13.529Z,101519.28
2022-12-31T11:04:15.220Z,101518.63
2022-12-31T11:07:58.759Z,101523.03
2022-12-31T11:12:03.832Z,101526.41
2022-12-31T11:15:54.186Z,101518.66
2022-12-31T11:19:36.415Z,101506.13
2022-12-31T11:23:09.835Z,101510.69
2022-12-31T11:26:37.707Z,101496.28
2022-12-31T11:30:15.522Z,101515.75
2022-12-31T11:34:00.191Z,101523.84
2022-12-31T11:37:29.306Z,101517.94
2022-12-31T11:40:54.178Z,101512.19
2022-12-31T11:44:25.809Z,101516.13
2022-12-31T11:48:34.180Z,101503.41
2022-12-31T11:52:09.977Z,101488.28
2022-12-31T11:55:46.142Z,101492.72
2022-12-31T11:58:56.752Z,101503.72
2022-12-31T12:03:08.907Z,101513.31
2022-12-31T12:06:46.367Z,101513.56
2022-12-31T12:09:57.926Z,101526.91
2022-12-31T12:13:31.519Z,101527.69
2022-12-31T12:16:46.970Z,101523.19
2022-12-31T12:20:01.762Z,101528.63
2022-12-31T12:23:18.437Z,101528.03
2022-12-31T12:26:42.831Z,101533.22
2022-12-31T12:30:35.405Z,101535.56
2022-12-31T12:42:23.622Z,101517.72
2022-12-31T12:46:15.648Z,101511.03
2022-12-31T12:49:40.857Z,101515.56
2022-12-31T12:53:37.265Z,101509.78
2022-12-31T12:56:57.656Z,101505.03
2022-12-31T13:00:45.873Z,101513.22
2022-12-31T13:04:35.819Z,101510.50
2022-12-31T13:08:38.932Z,101501.13
2022-12-31T13:12:25.868Z,101491.75
2022-12-31T13:22:27.791Z,101507.00
2022-12-31T13:26:27.489Z,101530.56
2022-12-31T13:30:07.551Z,101517.69
2022-12-31T13:33:26.800Z,101514.88
2022-12-31T13:37:07.451Z,101520.84
2022-12-31T13:40:26.293Z,101510.38
2022-12-31T13:43:59.110Z,101508.03
2022-12-31T13:47:15.785Z,101504.91
2022-12-31T13:50:58.073Z,101512.38
2022-12-31T13:54:22.864Z,101539.56
2022-12-31T13:58:57.950Z,101538.97
2022-12-31T14:02:31.415Z,101536.81
2022-12-31T14:06:35.534Z,101528.91
2022-12-31T14:09:43.658Z,101538.03
2022-12-31T14:13:57.294Z,101549.44
2022-12-31T14:17:36.734Z,101546.19
2022-12-31T14:21:27.037Z,101537.16
2022-12-31T14:24:51.648Z,101534.72
2022-12-31T14:28:13.985Z,101537.56
2022-12-31T14:31:49.278Z,101543.03
2022-12-31T14:35:34.067Z,101540.22
2022-12-31T14:38:53.359Z,101540.22
2022-12-31T14:42:23.518Z,101532.00
2022-12-31T14:45:38.771Z,101527.41
2022-12-31T14:48:58.714Z,101515.41
2022-12-31T14:52:25.266Z,101537.72
2022-12-31T14:55:43.886Z,101544.81
2022-12-31T14:59:01.480Z,101529.97
2022-12-31T15:02:27.142Z,101530.41
2022-12-31T15:05:41.687Z,101544.00
2022-12-31T15:09:08.633Z,101540.00
2022-12-31T15:12:34.497Z,101515.78
2022-12-31T15:16:15.143Z,101526.25
2022-12-31T15:19:37.786Z,101542.00
2022-12-31T15:22:52.588Z,101553.84
2022-12-31T15:26:00.804Z,101554.41
2022-12-31T15:29:08.772Z,101553.28
2022-12-31T15:32:32.357Z,101556.25
2022-12-31T15:35:51.563Z,101548.22
2022-12-31T15:39:35.497Z,101546.09
2022-12-31T15:42:55.786Z,101576.63
2022-12-31T15:46:10.091Z,101581.66
2022-12-31T15:49:23.636Z,101580.00
2022-12-31T15:53:06.319Z,101562.03
2022-12-31T15:56:48.833Z,101563.59
2022-12-31T15:59:59.690Z,101558.06
2022-12-31T16:03:02.836Z,101549.91
2022-12-31T16:06:15.126Z,101552.91
2022-12-31T16:09:30.620Z,101563.53
2022-12-31T16:12:45.510Z,101569.50
2022-12-31T16:16:36.350Z,101570.56
2022-12-31T16:19:44.885Z,101561.09
2022-12-31T16:22:54.942Z,101559.19
2022-12-31T16:26:02.645Z,101555.81
2022-12-31T16:29:24.384Z,101546.41
2022-12-31T16:32:35.700Z,101542.81
2022-12-31T16:35:44.806Z,101544.16
2022-12-31T16:39:27.448Z,101551.81
2022-12-31T16:42:31.210Z,101557.88
2022-12-31T16:45:46.101Z,101574.19
2022-12-31T16:49:01.925Z,101574.06
2022-12-31T16:52:30.816Z,101575.59
2022-12-31T16:55:46.631Z,101579.31
2022-12-31T16:59:15.049Z,101570.94
2022-12-31T17:03:19.246Z,101560.06
2022-12-31T17:06:18.788Z,101565.41
2022-12-31T17:09:36.845Z,101585.69
2022-12-31T17:13:29.551Z,101590.47
2022-12-31T17:16:36.736Z,101578.66
2022-12-31T17:20:00.107Z,101574.34
2022-12-31T17:23:33.250Z,101577.16
2022-12-31T17:34:36.194Z,101596.44
2022-12-31T17:38:43.354Z,101603.72
2022-12-31T17:43:01.095Z,101612.88
2022-12-31T17:46:42.759Z,101596.69
2022-12-31T17:50:36.027Z,101594.13
2022-12-31T17:53:59.053Z,101602.72
2022-12-31T17:57:37.364Z,101613.63
2022-12-31T18:00:58.331Z,101604.63
2022-12-31T18:04:13.058Z,101595.38
2022-12-31T18:07:34.337Z,101591.81
2022-12-31T18:10:56.519Z,101584.13
2022-12-31T18:14:00.327Z,101587.41
2022-12-31T18:17:16.465Z,101587.00
2022-12-31T18:20:20.453Z,101589.19
2022-12-31T18:26:59.239Z,101607.47
2022-12-31T18:30:08.156Z,101610.06
2022-12-31T18:33:29.755Z,101606.44
2022-12-31T18:36:45.959Z,101611.22
2022-12-31T18:40:10.688Z,101620.75
2022-12-31T18:43:19.448Z,101623.78
2022-12-31T18:46:27.832Z,101630.47
2022-12-31T18:49:37.646Z,101634.16
2022-12-31T18:53:00.583Z,101640.94
2022-12-31T18:56:26.301Z,101637.19
2022-12-31T18:59:36.195Z,101637.38
2022-12-31T19:02:55.740Z,101638.34
2022-12-31T19:06:25.603Z,101638.09
2022-12-31T19:09:49.136Z,101639.16
2022-12-31T19:13:12.489Z,101633.34
2022-12-31T19:16:39.566Z,101630.81
2022-12-31T19:19:42.525Z,101632.03
2022-12-31T19:22:48.834Z,101634.66
2022-12-31T19:26:10.756Z,101619.69
2022-12-31T19:29:39.462Z,101621.69
2022-12-31T19:32:59.606Z,101624.03
2022-12-31T19:36:04.308Z,101632.84
2022-12-31T19:39:26.645Z,101641.56
2022-12-31T19:42:42.884Z,101650.84
2022-12-31T19:45:47.087Z,101647.91
2022-12-31T19:48:51.897Z,101647.22
2022-12-31T19:52:05.665Z,101638.31
2022-12-31T19:55:35.079Z,101611.22
2022-12-31T19:58:50.355Z,101597.41
2022-12-31T20:02:11.690Z,101595.16
2022-12-31T20:05:36.838Z,101596.91
2022-12-31T20:08:55.564Z,101598.06
2022-12-31T20:11:58.583Z,101598.31
2022-12-31T20:15:01.657Z,101601.97
2022-12-31T20:18:10.860Z,101607.84
2022-12-31T20:21:36.318Z,101608.00
2022-12-31T20:25:02.836Z,101608.00
2022-12-31T20:28:22.920Z,101607.56
2022-12-31T20:31:36.120Z,101605.09
2022-12-31T20:34:48.106Z,101617.06
2022-12-31T20:38:00.683Z,101617.91
2022-12-31T20:41:13.253Z,101622.81
2022-12-31T20:44:20.068Z,101616.84
2022-12-31T20:47:33.952Z,101621.88
2022-12-31T20:50:54.287Z,101624.81
2022-12-31T20:54:19.620Z,101619.28
2022-12-31T20:57:39.540Z,101606.06
2022-12-31T21:00:52.954Z,101615.78
2022-12-31T21:04:05.972Z,101606.78
2022-12-31T21:07:13.657Z,101614.63
2022-12-31T21:10:24.027Z,101612.03
2022-12-31T21:13:50.591Z,101626.69
2022-12-31T21:17:16.281Z,101608.31
2022-12-31T21:20:39.207Z,101612.28
2022-12-31T21:23:43.167Z,101621.19
2022-12-31T21:26:48.932Z,101639.94
2022-12-31T21:30:18.440Z,101645.31
2022-12-31T21:33:45.186Z,101647.16
2022-12-31T21:37:22.179Z,101643.78
2022-12-31T21:40:51.000Z,101654.66
2022-12-31T21:44:15.068Z,101657.56
2022-12-31T21:47:53.233Z,101659.69
2022-12-31T21:51:14.959Z,101663.44
2022-12-31T21:54:41.560Z,101656.88
2022-12-31T21:58:23.943Z,101664.03
2022-12-31T22:01:40.864Z,101663.09
2022-12-31T22:05:02.293Z,101652.19
2022-12-31T22:08:06.817Z,101654.84
2022-12-31T22:11:16.492Z,101670.78
2022-12-31T22:14:35.195Z,101672.09
2022-12-31T22:17:56.990Z,101663.66
2022-12-31T22:21:21.298Z,101664.38
2022-12-31T22:24:24.282Z,101667.94
2022-12-31T22:27:29.294Z,101657.16
2022-12-31T22:30:39.911Z,101659.66
2022-12-31T22:33:58.740Z,101651.38
2022-12-31T22:37:27.485Z,101655.25
2022-12-31T22:40:48.581Z,101656.19
2022-12-31T22:44:11.003Z,101644.31
2022-12-31T22:47:31.720Z,101641.47
2022-12-31T22:50:41.798Z,101639.13
2022-12-31T22:54:04.986Z,101633.06
2022-12-31T22:57:27.935Z,101646.22
2022-12-31T23:00:48.898Z,101635.13
2022-12-31T23:04:11.967Z,101638.28
2022-12-31T23:07:28.050Z,101636.41
2022-12-31T23:11:06.589Z,101625.34
2022-12-31T23:14:42.601Z,101619.94
2022-12-31T23:18:08.686Z,101625.41
2022-12-31T23:21:32.719Z,101632.31
2022-12-31T23:24:37.996Z,101624.91
2022-12-31T23:27:57.043Z,101624.91
2022-12-31T23:31:14.025Z,101633.44
2022-12-31T23:34:36.924Z,101635.75
2022-12-31T23:38:03.961Z,101635.53
2022-12-31T23:41:31.729Z,101634.25
2022-12-31T23:44:41.834Z,101641.28
2022-12-31T23:48:09.001Z,101641.81
2022-12-31T23:51:35.733Z,101646.59
2022-12-31T23:54:56.672Z,101643.34
2022-12-31T23:58:19.896Z,101639.50
